Time;durP1;ratioP1;P1;durP2;ratioP2;P2;SDS_P1;SDS_P2;PMS_P1;PMS_P2;Temp;Humidity;BMP_temperature;BMP_pressure;BME280_temperature;BME280_humidity;BME280_pressure;Samples;Min_cycle;Max_cycle;Signal;HPM_P1;HPM_P2
2021/12/08 00:01:07;;;;;;;12.75;4.18;;;2.80;99.90;;;;;;5113058;28;20036;-60
2021/12/08 00:03:33;;;;;;;10.63;3.95;;;2.70;99.90;;;;;;5113194;28;20043;-61
2021/12/08 00:06:00;;;;;;;10.68;3.83;;;2.70;99.90;;;;;;5113033;28;20111;-60
2021/12/08 00:08:28;;;;;;;11.65;4.03;;;2.70;99.90;;;;;;5112776;28;20100;-60
2021/12/08 00:13:29;;;;;;;10.60;4.20;;;2.70;99.90;;;;;;5112989;28;20089;-60
2021/12/08 00:15:58;;;;;;;9.32;3.92;;;2.60;99.90;;;;;;5112624;28;20036;-60
2021/12/08 00:18:26;;;;;;;;;;;2.70;99.90;;;;;;5112469;28;20055;-61
2021/12/08 00:20:55;;;;;;;9.73;4.28;;;2.70;99.90;;;;;;5111344;28;20037;-61
2021/12/08 00:23:22;;;;;;;12.15;4.00;;;2.70;99.90;;;;;;5112717;28;20084;-59
2021/12/08 00:25:48;;;;;;;9.13;4.63;;;2.70;99.90;;;;;;5112648;28;20032;-60
2021/12/08 00:28:14;;;;;;;12.65;4.97;;;2.70;99.90;;;;;;5112523;28;20039;-60
2021/12/08 00:50:51;;;;;;;10.43;4.63;;;2.90;99.90;;;;;;5093042;28;20080;-60
2021/12/08 00:53:17;;;;;;;10.25;4.47;;;2.90;99.90;;;;;;5112145;28;20044;-61
2021/12/08 00:55:43;;;;;;;11.85;5.30;;;2.90;99.90;;;;;;5112395;28;20382;-60
2021/12/08 00:58:08;;;;;;;13.38;5.20;;;2.90;99.90;;;;;;5112188;28;20117;-60
2021/12/08 01:00:48;;;;;;;9.35;4.82;;;2.90;99.90;;;;;;5112132;28;20044;-61
2021/12/08 01:03:16;;;;;;;;;;;3.00;99.90;;;;;;5112556;28;20047;-60
2021/12/08 01:05:55;;;;;;;11.48;4.70;;;3.00;99.90;;;;;;5111993;28;19923;-61
2021/12/08 01:08:24;;;;;;;11.13;5.07;;;3.00;99.90;;;;;;5113272;28;20035;-60
2021/12/08 01:10:52;;;;;;;5.90;4.68;;;3.00;99.90;;;;;;5116061;28;20044;-60
2021/12/08 01:13:19;;;;;;;9.85;4.82;;;3.00;99.90;;;;;;5116305;28;20043;-60
2021/12/08 01:15:51;;;;;;;9.82;5.03;;;3.00;99.90;;;;;;5116302;28;20028;-61
2021/12/08 01:18:18;;;;;;;11.98;4.90;;;3.00;99.90;;;;;;5116159;28;20031;-60
2021/12/08 01:20:45;;;;;;;9.55;5.22;;;3.10;99.90;;;;;;5116122;28;20032;-60
2021/12/08 01:23:11;;;;;;;11.85;5.18;;;3.10;99.90;;;;;;5115929;28;20089;-61
2021/12/08 01:25:37;;;;;;;11.60;4.53;;;3.20;99.90;;;;;;5115918;28;20043;-61
2021/12/08 01:28:03;;;;;;;9.93;5.03;;;3.20;99.90;;;;;;5115652;28;20046;-60
2021/12/08 01:30:29;;;;;;;11.25;4.35;;;3.20;99.90;;;;;;5115967;28;20089;-61
2021/12/08 01:32:56;;;;;;;11.25;4.40;;;3.30;99.90;;;;;;5115875;28;20123;-61
2021/12/08 01:35:23;;;;;;;8.88;4.70;;;3.30;99.90;;;;;;5115763;28;20482;-61
2021/12/08 01:37:48;;;;;;;8.85;4.15;;;3.40;99.90;;;;;;5115655;28;20123;-61
2021/12/08 01:40:17;;;;;;;10.10;3.90;;;3.40;99.90;;;;;;5115604;28;20119;-61
2021/12/08 01:42:47;;;;;;;12.52;4.22;;;3.40;99.90;;;;;;5115766;28;20039;-60
2021/12/08 01:48:04;;;;;;;10.27;4.15;;;3.50;99.90;;;;;;5115587;27;20079;-60
2021/12/08 01:50:30;;;;;;;9.20;4.43;;;3.50;99.90;;;;;;5115246;28;20036;-60
2021/12/08 01:52:56;;;;;;;8.85;4.40;;;3.50;99.90;;;;;;5115240;28;20043;-61
2021/12/08 01:55:22;;;;;;;9.02;4.05;;;3.50;99.90;;;;;;5115452;28;20039;-61
2021/12/08 01:57:47;;;;;;;11.02;4.20;;;3.50;99.90;;;;;;5115415;28;20046;-61
2021/12/08 02:00:25;;;;;;;10.25;4.35;;;3.50;99.90;;;;;;5115256;28;20063;-61
2021/12/08 02:02:51;;;;;;;12.90;5.32;;;3.60;99.90;;;;;;5115177;28;20042;-60
2021/12/08 02:05:17;;;;;;;9.90;4.43;;;3.50;99.90;;;;;;5115030;28;20043;-60
2021/12/08 02:07:43;;;;;;;11.43;4.50;;;3.60;99.90;;;;;;5113931;28;20040;-61
2021/12/08 02:10:10;;;;;;;12.15;4.65;;;3.60;99.90;;;;;;5113741;28;20043;-61
2021/12/08 02:12:39;;;;;;;8.48;4.38;;;3.60;99.90;;;;;;5114813;28;20039;-60
2021/12/08 02:15:09;;;;;;;12.38;4.47;;;3.60;99.90;;;;;;5115051;27;20043;-60
2021/12/08 02:17:34;;;;;;;;;;;3.60;99.90;;;;;;5115212;28;20035;-60
2021/12/08 02:20:03;;;;;;;11.98;4.90;;;3.60;99.90;;;;;;5113245;28;19915;-61
2021/12/08 02:22:28;;;;;;;7.40;4.68;;;3.60;99.90;;;;;;5115114;28;20437;-60
2021/12/08 02:24:54;;;;;;;8.88;4.65;;;3.60;99.90;;;;;;5114863;28;20191;-60
2021/12/08 02:27:20;;;;;;;9.75;4.65;;;3.60;99.90;;;;;;5114893;28;20058;-61
2021/12/08 02:29:54;;;;;;;10.57;4.63;;;3.60;99.90;;;;;;5113370;28;20044;-60
2021/12/08 02:48:28;;;;;;;10.23;5.20;;;3.60;99.90;;;;;;5114316;28;20047;-60
2021/12/08 02:50:54;;;;;;;9.75;4.25;;;3.70;99.90;;;;;;5114011;28;20477;-61
2021/12/08 02:53:19;;;;;;;9.27;4.43;;;3.60;99.90;;;;;;5114308;28;20050;-61
2021/12/08 02:55:47;;;;;;;9.70;4.20;;;3.60;99.90;;;;;;5114607;27;20043;-60
2021/12/08 02:58:14;;;;;;;9.15;4.75;;;3.70;99.90;;;;;;5114409;28;20370;-61
2021/12/08 03:00:45;;;;;;;10.85;4.45;;;3.60;99.90;;;;;;5114085;28;20104;-61
2021/12/08 03:03:11;;;;;;;10.32;4.13;;;3.70;99.90;;;;;;5114077;28;20473;-61
2021/12/08 03:05:37;;;;;;;11.02;4.60;;;3.70;99.90;;;;;;5113918;27;20043;-60
2021/12/08 03:08:07;;;;;;;8.95;4.00;;;3.70;99.90;;;;;;5113852;28;20047;-61
2021/12/08 03:10:38;;;;;;;5.40;3.92;;;3.80;99.90;;;;;;5113847;28;20500;-61
2021/12/08 03:13:04;;;;;;;9.10;4.88;;;3.80;99.90;;;;;;5113840;28;20118;-61
2021/12/08 03:15:30;;;;;;;6.35;4.20;;;3.80;99.90;;;;;;5113800;28;20050;-61
2021/12/08 03:17:55;;;;;;;8.15;4.38;;;3.80;99.90;;;;;;5113591;28;20043;-60
2021/12/08 03:20:36;;;;;;;7.88;4.60;;;3.80;99.90;;;;;;5113914;27;20047;-60
2021/12/08 03:23:03;;;;;;;9.50;4.55;;;3.80;99.90;;;;;;5113842;28;20039;-60
2021/12/08 03:25:35;;;;;;;10.43;5.97;;;3.80;99.90;;;;;;5113759;28;20047;-61
2021/12/08 03:28:10;;;;;;;8.60;4.25;;;3.80;99.90;;;;;;5113513;28;20043;-61
2021/12/08 03:30:50;;;;;;;8.38;4.97;;;3.90;99.90;;;;;;5113474;28;20046;-61
2021/12/08 03:33:15;;;;;;;9.43;5.22;;;3.80;99.90;;;;;;5112548;28;20036;-61
2021/12/08 03:35:41;;;;;;;7.22;4.95;;;3.80;99.90;;;;;;5113489;28;20376;-61
2021/12/08 03:38:08;;;;;;;8.40;5.40;;;3.90;99.90;;;;;;5113425;28;20105;-61
2021/12/08 03:40:35;;;;;;;8.73;5.72;;;3.90;99.90;;;;;;5112248;28;20151;-61
2021/12/08 03:43:00;;;;;;;9.68;5.47;;;3.90;99.90;;;;;;5112589;28;20053;-61
2021/12/08 03:45:32;;;;;;;10.50;5.80;;;3.90;99.90;;;;;;5113477;28;20031;-61
2021/12/08 03:48:04;;;;;;;10.95;6.45;;;4.00;99.90;;;;;;5113352;28;20470;-61
2021/12/08 03:50:34;;;;;;;10.75;6.53;;;4.00;99.90;;;;;;5113137;28;20088;-61
2021/12/08 03:53:00;;;;;;;10.45;6.90;;;4.00;99.90;;;;;;5112851;28;20120;-61
2021/12/08 03:55:26;;;;;;;9.77;7.13;;;4.00;99.90;;;;;;5113123;28;20465;-61
2021/12/08 03:57:54;;;;;;;14.27;6.93;;;4.00;99.90;;;;;;5113219;28;20032;-61
2021/12/08 04:00:23;;;;;;;11.80;6.78;;;4.00;99.90;;;;;;5112966;28;20045;-60
2021/12/08 04:02:48;;;;;;;;;;;4.00;99.90;;;;;;5113388;28;20054;-61
2021/12/08 04:05:19;;;;;;;13.07;7.38;;;4.00;99.90;;;;;;5112800;28;19916;-61
2021/12/08 04:07:47;;;;;;;12.18;7.25;;;4.10;99.90;;;;;;5112693;28;20044;-61
2021/12/08 04:10:19;;;;;;;9.20;6.60;;;4.10;99.90;;;;;;5112800;28;20043;-61
2021/12/08 04:12:50;;;;;;;10.63;7.85;;;4.10;99.90;;;;;;5113110;28;20047;-60
2021/12/08 04:15:18;;;;;;;12.20;7.30;;;4.10;99.90;;;;;;5112858;28;20047;-61
2021/12/08 04:17:50;;;;;;;13.10;7.40;;;4.20;99.90;;;;;;5112785;28;20039;-61
2021/12/08 04:20:19;;;;;;;11.88;7.97;;;4.20;99.90;;;;;;5112656;28;20036;-61
2021/12/08 04:22:48;;;;;;;11.50;7.55;;;4.10;99.90;;;;;;5112570;28;20039;-61
2021/12/08 04:25:29;;;;;;;10.85;7.60;;;4.20;99.90;;;;;;5111308;28;20047;-61
2021/12/08 04:27:58;;;;;;;14.05;8.52;;;4.20;99.90;;;;;;5111505;28;20480;-60
2021/12/08 04:30:37;;;;;;;16.63;8.77;;;4.30;99.90;;;;;;5112496;28;20473;-61
2021/12/08 04:33:03;;;;;;;10.77;7.93;;;4.40;99.90;;;;;;5112701;28;20744;-61
2021/12/08 04:35:29;;;;;;;13.55;8.30;;;4.40;99.90;;;;;;5112637;28;20118;-61
2021/12/08 04:37:58;;;;;;;9.65;7.10;;;4.40;99.90;;;;;;5112590;28;20036;-61
2021/12/08 04:40:49;;;;;;;12.88;8.32;;;4.40;99.90;;;;;;5112700;28;20045;-61
2021/12/08 04:46:01;;;;;;;11.25;8.27;;;4.40;99.90;;;;;;5112572;28;20044;-61
2021/12/08 05:01:30;;;;;;;15.30;9.77;;;4.50;99.90;;;;;;5112263;28;20372;-61
2021/12/08 05:04:10;;;;;;;12.75;8.93;;;4.50;99.90;;;;;;5112254;28;20477;-61
2021/12/08 05:07:01;;;;;;;14.10;9.73;;;4.60;99.90;;;;;;5112349;28;20067;-60
2021/12/08 05:09:31;;;;;;;11.43;9.27;;;4.60;99.90;;;;;;5112548;28;20070;-60
2021/12/08 05:12:16;;;;;;;14.70;9.00;;;4.60;99.90;;;;;;5111968;28;20047;-61
2021/12/08 05:14:54;;;;;;;11.77;9.10;;;4.70;99.90;;;;;;5112343;28;20048;-61
2021/12/08 05:17:24;;;;;;;14.48;9.40;;;4.70;99.90;;;;;;5112331;28;20035;-61
2021/12/08 05:19:54;;;;;;;13.57;9.15;;;4.70;99.90;;;;;;5112178;28;20036;-61
2021/12/08 05:22:29;;;;;;;13.93;9.35;;;4.70;99.90;;;;;;5112019;28;20039;-62
2021/12/08 05:24:57;;;;;;;12.02;8.40;;;4.70;99.90;;;;;;5111041;28;20062;-62
2021/12/08 05:27:31;;;;;;;13.40;9.70;;;4.70;99.90;;;;;;5111014;28;20118;-61
2021/12/08 05:30:06;;;;;;;12.93;9.77;;;4.70;99.90;;;;;;5111894;28;20032;-61
2021/12/08 05:32:32;;;;;;;13.77;8.85;;;4.80;99.90;;;;;;5111888;28;20396;-61
2021/12/08 05:34:58;;;;;;;13.10;8.98;;;4.80;99.90;;;;;;5111848;28;20050;-61
2021/12/08 05:37:24;;;;;;;14.23;9.35;;;4.90;99.90;;;;;;5111648;28;20388;-61
2021/12/08 05:39:51;;;;;;;12.50;8.75;;;4.90;99.90;;;;;;5111801;28;20042;-62
2021/12/08 05:42:22;;;;;;;10.00;8.75;;;4.90;99.90;;;;;;5111970;28;20040;-60
2021/12/08 05:44:48;;;;;;;16.45;9.43;;;5.00;99.90;;;;;;5112076;28;20039;-61
2021/12/08 05:47:17;;;;;;;13.98;8.40;;;5.00;99.90;;;;;;5111773;28;20134;-62
2021/12/08 05:49:43;;;;;;;12.18;7.68;;;5.00;99.90;;;;;;5112007;28;20044;-61
2021/12/08 05:52:09;;;;;;;15.02;8.95;;;5.10;99.90;;;;;;5111740;28;20086;-61
2021/12/08 05:54:39;;;;;;;11.75;8.05;;;5.20;99.90;;;;;;5112078;28;20465;-61
2021/12/08 05:57:22;;;;;;;14.77;8.18;;;5.10;99.90;;;;;;5114283;28;20047;-61
2021/12/08 05:59:50;;;;;;;12.45;8.27;;;5.30;99.90;;;;;;5114261;28;20071;-61
2021/12/08 06:02:25;;;;;;;12.80;8.67;;;5.30;99.90;;;;;;5115352;28;20477;-61
2021/12/08 06:04:51;;;;;;;13.85;8.52;;;5.30;99.90;;;;;;5115160;28;20059;-62
2021/12/08 06:07:21;;;;;;;13.77;8.70;;;5.30;99.90;;;;;;5115133;28;20473;-61
2021/12/08 06:09:52;;;;;;;13.80;8.63;;;5.30;99.90;;;;;;5115101;28;20477;-61
2021/12/08 06:12:18;;;;;;;12.82;8.43;;;5.30;99.90;;;;;;5114863;28;20074;-61
2021/12/08 06:14:44;;;;;;;14.27;7.50;;;5.30;99.90;;;;;;5114995;28;20039;-62
2021/12/08 06:17:13;;;;;;;14.10;8.02;;;5.30;99.90;;;;;;5114655;28;20503;-62
2021/12/08 06:19:40;;;;;;;;;;;5.40;99.90;;;;;;5115222;28;20080;-61
2021/12/08 06:22:08;;;;;;;9.68;7.68;;;5.40;99.90;;;;;;5115033;28;19915;-61
2021/12/08 06:24:34;;;;;;;11.60;8.63;;;5.30;99.90;;;;;;5114948;28;20047;-61
2021/12/08 06:27:00;;;;;;;10.27;7.82;;;5.30;99.90;;;;;;5113438;28;20115;-62
2021/12/08 06:29:26;;;;;;;14.77;8.32;;;5.30;99.90;;;;;;5114695;28;20119;-61
2021/12/08 06:31:55;;;;;;;9.65;7.82;;;5.30;99.90;;;;;;5114797;28;20067;-60
2021/12/08 06:34:24;;;;;;;12.85;7.68;;;5.40;99.90;;;;;;5114707;28;20039;-61
2021/12/08 06:36:56;;;;;;;12.02;7.65;;;5.40;99.90;;;;;;5114704;28;20111;-61
2021/12/08 06:39:29;;;;;;;8.98;6.90;;;5.50;99.90;;;;;;5114586;28;20401;-62
2021/12/08 06:42:01;;;;;;;11.68;6.97;;;5.50;99.90;;;;;;5113377;28;20104;-61
2021/12/08 06:44:31;;;;;;;13.63;7.43;;;5.50;99.90;;;;;;5114764;28;20051;-61
2021/12/08 06:46:59;;;;;;;12.88;7.10;;;5.50;99.90;;;;;;5114559;28;20088;-60
2021/12/08 06:49:26;;;;;;;12.68;7.25;;;5.40;99.90;;;;;;5114255;28;20040;-62
2021/12/08 06:52:10;;;;;;;13.45;7.20;;;5.40;99.90;;;;;;5114100;28;20051;-60
2021/12/08 06:54:44;;;;;;;14.77;6.47;;;5.40;99.90;;;;;;5114098;28;20039;-61
2021/12/08 06:57:18;;;;;;;10.48;6.40;;;5.40;99.90;;;;;;5114326;28;20457;-60
2021/12/08 07:00:05;;;;;;;11.85;7.43;;;5.40;99.90;;;;;;5113211;27;20051;-61
2021/12/08 07:02:51;;;;;;;11.32;6.68;;;5.30;99.90;;;;;;5114109;28;20047;-61
2021/12/08 07:05:28;;;;;;;11.20;5.72;;;5.20;99.90;;;;;;5114030;28;20096;-60
2021/12/08 07:07:58;;;;;;;7.07;5.75;;;5.20;99.90;;;;;;5113819;28;20131;-61
2021/12/08 07:10:28;;;;;;;11.32;6.20;;;5.20;99.90;;;;;;5113956;28;20051;-61
2021/12/08 07:13:03;;;;;;;12.18;5.65;;;5.20;99.90;;;;;;5112558;28;20095;-61
2021/12/08 07:15:41;;;;;;;13.80;6.22;;;5.20;99.90;;;;;;5113757;28;20443;-61
2021/12/08 07:18:16;;;;;;;15.00;6.10;;;5.20;99.90;;;;;;5113767;28;20050;-62
2021/12/08 07:20:49;;;;;;;9.55;6.22;;;5.20;99.90;;;;;;5114174;28;20023;-61
2021/12/08 07:23:24;;;;;;;10.40;5.78;;;5.20;99.90;;;;;;5113714;28;20453;-61
2021/12/08 07:25:52;;;;;;;8.20;5.72;;;5.20;99.90;;;;;;5113573;28;20042;-61
2021/12/08 07:28:19;;;;;;;9.52;5.55;;;5.20;99.90;;;;;;5113876;28;20035;-62
2021/12/08 07:31:01;;;;;;;8.20;5.10;;;5.10;99.90;;;;;;5113567;28;20043;-61
2021/12/08 07:33:28;;;;;;;7.55;5.28;;;5.10;99.90;;;;;;5113566;28;20067;-61
2021/12/08 07:35:56;;;;;;;9.27;5.82;;;5.10;99.90;;;;;;5113499;28;20047;-61
2021/12/08 07:38:26;;;;;;;8.40;5.78;;;5.00;99.90;;;;;;5113095;28;20054;-59
2021/12/08 07:41:06;;;;;;;7.72;4.72;;;5.00;99.90;;;;;;5113473;28;20032;-61
2021/12/08 07:43:33;;;;;;;10.35;5.28;;;5.00;99.90;;;;;;5113332;28;20043;-61
2021/12/08 07:46:10;;;;;;;10.90;4.65;;;5.00;99.90;;;;;;5113033;28;20569;-62
2021/12/08 07:48:49;;;;;;;11.38;4.75;;;5.00;99.90;;;;;;5113132;28;20096;-62
2021/12/08 07:51:27;;;;;;;10.18;4.85;;;5.00;99.90;;;;;;5112991;28;20051;-62
2021/12/08 07:53:54;;;;;;;10.13;4.65;;;5.00;99.90;;;;;;5109193;28;20456;-62
2021/12/08 07:56:22;;;;;;;7.57;3.85;;;5.00;99.90;;;;;;5112929;28;20477;-62
2021/12/08 07:58:53;;;;;;;6.47;3.72;;;5.10;99.90;;;;;;5113021;28;20031;-62
2021/12/08 08:01:28;;;;;;;6.43;3.63;;;5.00;99.90;;;;;;5112956;28;20040;-62
2021/12/08 08:03:54;;;;;;;8.18;3.95;;;5.10;99.90;;;;;;5112520;28;20199;-61
2021/12/08 08:06:29;;;;;;;7.25;3.10;;;5.10;99.90;;;;;;5113124;28;20035;-62
2021/12/08 08:08:55;;;;;;;5.40;3.55;;;5.20;99.90;;;;;;5112266;27;20039;-61
2021/12/08 08:11:39;;;;;;;10.98;3.00;;;5.10;99.90;;;;;;5111789;27;20043;-62
2021/12/08 08:14:06;;;;;;;10.98;3.13;;;5.10;99.90;;;;;;5113037;28;20039;-61
2021/12/08 08:16:34;;;;;;;4.90;2.65;;;5.10;99.90;;;;;;5112929;28;20488;-62
2021/12/08 08:19:08;;;;;;;7.57;2.75;;;5.20;99.90;;;;;;5112179;28;20106;-61
2021/12/08 08:21:39;;;;;;;6.22;3.05;;;5.20;99.90;;;;;;5112601;28;20050;-62
2021/12/08 08:24:06;;;;;;;6.93;2.95;;;5.20;99.90;;;;;;5112550;28;20439;-61
2021/12/08 08:26:33;;;;;;;10.77;3.85;;;5.30;99.90;;;;;;5112608;28;20066;-63
2021/12/08 08:28:59;;;;;;;9.05;2.83;;;5.30;99.90;;;;;;5112684;28;20048;-62
2021/12/08 08:31:36;;;;;;;6.43;3.20;;;5.30;99.90;;;;;;5112523;28;20075;-63
2021/12/08 08:34:03;;;;;;;8.32;3.03;;;5.30;99.90;;;;;;5112518;28;20123;-62
2021/12/08 08:36:33;;;;;;;6.65;3.25;;;5.30;99.90;;;;;;5112179;28;20489;-62
2021/12/08 08:39:15;;;;;;;9.45;3.03;;;5.30;99.90;;;;;;5111229;28;20389;-63
2021/12/08 08:41:43;;;;;;;9.18;3.22;;;5.30;99.90;;;;;;5112295;28;20453;-61
2021/12/08 08:44:19;;;;;;;9.77;3.78;;;5.30;99.90;;;;;;5111022;28;20423;-63
2021/12/08 08:46:46;;;;;;;4.43;2.72;;;5.30;99.90;;;;;;5112420;28;20040;-62
2021/12/08 08:49:22;;;;;;;7.95;2.80;;;5.30;99.90;;;;;;5112192;28;20071;-62
2021/12/08 08:51:51;;;;;;;10.20;2.80;;;5.30;99.90;;;;;;5112118;28;20447;-63
2021/12/08 08:54:23;;;;;;;9.43;3.00;;;5.30;99.90;;;;;;5112393;28;20036;-62
2021/12/08 08:57:14;;;;;;;8.63;2.67;;;5.40;99.90;;;;;;5112182;28;20121;-61
2021/12/08 08:59:45;;;;;;;7.97;2.88;;;5.40;99.90;;;;;;5112270;28;20040;-62
2021/12/08 09:02:17;;;;;;;7.45;2.33;;;5.40;99.90;;;;;;5112269;28;20097;-62
2021/12/08 09:04:56;;;;;;;7.97;2.60;;;5.50;99.90;;;;;;5112333;28;20462;-62
2021/12/08 09:07:30;;;;;;;11.90;2.75;;;5.60;99.90;;;;;;5112048;28;20128;-61
2021/12/08 09:10:00;;;;;;;8.02;2.33;;;5.60;99.90;;;;;;5112074;28;20085;-62
2021/12/08 09:12:34;;;;;;;7.75;2.45;;;5.60;99.90;;;;;;5112010;28;20484;-63
2021/12/08 09:15:16;;;;;;;9.65;2.50;;;5.60;99.90;;;;;;5112014;28;20480;-62
2021/12/08 09:17:56;;;;;;;12.40;2.60;;;5.50;99.90;;;;;;5111961;28;20473;-62
2021/12/08 09:20:28;;;;;;;8.85;2.22;;;5.60;99.90;;;;;;5112006;28;20040;-63
2021/12/08 09:23:01;;;;;;;7.30;2.40;;;5.50;99.90;;;;;;5112031;28;20044;-62
2021/12/08 09:25:37;;;;;;;6.72;1.90;;;5.50;99.90;;;;;;5112003;28;20113;-63
2021/12/08 09:28:24;;;;;;;11.15;2.53;;;5.60;99.90;;;;;;5110706;28;20569;-62
2021/12/08 09:31:08;;;;;;;5.95;2.30;;;5.60;99.90;;;;;;5113587;28;20088;-63
2021/12/08 09:33:42;;;;;;;6.75;2.08;;;5.60;99.90;;;;;;5114208;28;20059;-62
2021/12/08 09:36:15;;;;;;;10.57;2.65;;;5.60;99.90;;;;;;5115902;28;20400;-61
2021/12/08 09:38:46;;;;;;;16.35;2.30;;;5.60;99.90;;;;;;5115814;28;20040;-62
2021/12/08 09:41:17;;;;;;;8.50;2.22;;;5.60;99.90;;;;;;5115611;28;20559;-63
2021/12/08 09:43:49;;;;;;;7.47;2.20;;;5.60;99.90;;;;;;5115845;28;20043;-63
2021/12/08 09:46:19;;;;;;;7.78;2.10;;;5.60;99.90;;;;;;5115855;28;20040;-62
2021/12/08 09:48:46;;;;;;;10.18;2.80;;;5.60;99.90;;;;;;5115797;28;20755;-62
2021/12/08 09:51:15;;;;;;;6.82;2.20;;;5.60;99.90;;;;;;5115701;28;20059;-62
2021/12/08 09:53:43;;;;;;;9.95;1.60;;;5.60;99.90;;;;;;5115441;28;20062;-63
2021/12/08 09:56:09;;;;;;;6.53;2.15;;;5.60;99.90;;;;;;5115219;28;20038;-62
2021/12/08 09:58:37;;;;;;;12.25;2.60;;;5.80;99.90;;;;;;5115501;28;20036;-63
2021/12/08 10:01:04;;;;;;;9.50;2.88;;;5.90;99.90;;;;;;5115140;28;20470;-63
2021/12/08 10:03:32;;;;;;;9.45;2.50;;;6.00;99.90;;;;;;5114561;27;20069;-62
2021/12/08 10:05:59;;;;;;;9.13;2.13;;;6.10;99.90;;;;;;5115319;28;20047;-63
2021/12/08 10:08:25;;;;;;;7.82;2.30;;;6.10;99.90;;;;;;5115113;28;20054;-62
2021/12/08 10:10:51;;;;;;;9.18;2.70;;;6.20;99.90;;;;;;5115132;28;20465;-63
2021/12/08 10:13:17;;;;;;;14.15;2.60;;;6.20;99.90;;;;;;5115049;28;20076;-63
2021/12/08 10:15:44;;;;;;;15.63;2.38;;;6.20;99.90;;;;;;5115349;28;20047;-62
2021/12/08 10:18:11;;;;;;;9.15;2.42;;;6.30;99.90;;;;;;5115244;28;20071;-63
2021/12/08 10:20:47;;;;;;;10.52;2.55;;;6.20;99.90;;;;;;5115114;28;20035;-63
2021/12/08 10:23:23;;;;;;;8.57;1.98;;;6.30;99.90;;;;;;5115066;27;20465;-63
2021/12/08 10:25:57;;;;;;;7.28;2.53;;;6.20;99.90;;;;;;5114949;28;20072;-63
2021/12/08 10:28:45;;;;;;;9.98;2.15;;;6.30;99.90;;;;;;5114857;28;20050;-61
2021/12/08 10:31:16;;;;;;;7.78;2.50;;;6.40;99.90;;;;;;5114562;28;20096;-63
2021/12/08 10:39:01;;;;;;;10.73;2.60;;;6.50;99.90;;;;;;5114703;28;19938;-62
2021/12/08 10:41:41;;;;;;;9.10;2.50;;;6.60;99.90;;;;;;5113919;28;20556;-63
2021/12/08 10:44:06;;;;;;;8.95;2.25;;;6.60;99.90;;;;;;5114641;28;20111;-63
2021/12/08 10:46:37;;;;;;;13.85;2.90;;;6.70;99.90;;;;;;5114627;28;20111;-63
2021/12/08 10:49:20;;;;;;;7.63;2.13;;;6.80;99.90;;;;;;5114455;28;20043;-63
2021/12/08 10:54:35;;;;;;;6.85;2.47;;;6.90;99.90;;;;;;5114524;28;20055;-64
2021/12/08 10:57:04;;;;;;;10.80;2.25;;;7.00;99.90;;;;;;5114624;28;20117;-64
2021/12/08 10:59:51;;;;;;;7.90;2.60;;;7.10;99.90;;;;;;5114111;28;20035;-63
2021/12/08 11:02:37;;;;;;;10.55;2.40;;;7.20;99.90;;;;;;5114197;28;20043;-63
2021/12/08 11:05:04;;;;;;;11.70;2.30;;;7.10;99.90;;;;;;5114797;28;20043;-64
2021/12/08 11:07:31;;;;;;;12.00;2.42;;;7.10;99.90;;;;;;5114473;28;20135;-63
2021/12/08 11:09:57;;;;;;;10.27;2.28;;;7.20;99.90;;;;;;5114414;28;20075;-63
2021/12/08 11:12:38;;;;;;;9.60;2.30;;;7.20;99.90;;;;;;5112612;28;20082;-64
2021/12/08 11:15:16;;;;;;;9.43;2.97;;;7.20;99.90;;;;;;5113901;28;20044;-63
2021/12/08 11:17:41;;;;;;;7.32;2.08;;;7.20;99.90;;;;;;5113604;28;20043;-63
2021/12/08 11:20:18;;;;;;;13.25;2.40;;;7.20;99.90;;;;;;5113975;28;20035;-63
2021/12/08 11:22:58;;;;;;;6.60;2.45;;;7.30;99.90;;;;;;5113654;28;20051;-63
2021/12/08 11:25:33;;;;;;;7.72;2.38;;;7.30;99.90;;;;;;5112462;28;20040;-64
2021/12/08 11:28:33;;;;;;;7.95;2.28;;;7.20;99.90;;;;;;5113818;28;20337;-63
2021/12/08 11:31:15;;;;;;;11.00;2.50;;;7.10;99.90;;;;;;5113790;28;20039;-63
2021/12/08 11:33:44;;;;;;;10.63;2.47;;;7.00;99.90;;;;;;5113352;28;20058;-61
2021/12/08 11:36:16;;;;;;;9.63;2.08;;;6.90;99.90;;;;;;5113454;27;20365;-61
2021/12/08 11:38:45;;;;;;;7.43;2.00;;;6.90;99.90;;;;;;5113351;28;20046;-61
2021/12/08 11:41:23;;;;;;;9.55;2.22;;;6.80;99.90;;;;;;5113523;28;20036;-64
2021/12/08 11:43:57;;;;;;;9.70;3.10;;;6.80;99.90;;;;;;5113332;28;20050;-64
2021/12/08 11:46:24;;;;;;;9.88;2.60;;;6.80;99.90;;;;;;5113274;28;20044;-63
2021/12/08 11:49:07;;;;;;;11.57;2.15;;;6.70;99.90;;;;;;5113364;28;20039;-63
2021/12/08 11:51:53;;;;;;;11.45;2.85;;;6.70;99.90;;;;;;5113054;28;20055;-63
2021/12/08 11:54:27;;;;;;;10.35;2.22;;;6.70;99.90;;;;;;5089723;28;20118;-63
2021/12/08 11:57:11;;;;;;;7.30;2.08;;;6.70;99.90;;;;;;5090488;28;20409;-63
2021/12/08 11:59:55;;;;;;;6.68;2.33;;;6.70;99.90;;;;;;5090375;28;20044;-64
2021/12/08 12:02:43;;;;;;;7.40;2.10;;;6.70;99.90;;;;;;5090413;28;20055;-64
2021/12/08 12:05:18;;;;;;;6.88;1.77;;;6.60;99.90;;;;;;5090368;28;20048;-63
2021/12/08 12:07:43;;;;;;;9.50;2.28;;;6.60;99.90;;;;;;5090437;28;20173;-63
2021/12/08 12:10:11;;;;;;;9.30;2.08;;;6.60;99.90;;;;;;5090423;28;20796;-63
2021/12/08 12:12:39;;;;;;;6.20;1.98;;;6.50;99.90;;;;;;5090361;28;20048;-64
2021/12/08 12:15:10;;;;;;;7.45;2.35;;;6.50;99.90;;;;;;5090208;28;20485;-63
2021/12/08 12:17:36;;;;;;;5.78;1.75;;;6.50;99.90;;;;;;5089932;28;20040;-63
2021/12/08 12:20:16;;;;;;;6.38;2.08;;;6.50;99.90;;;;;;5072821;28;20126;-63
2021/12/08 12:22:55;;;;;;;;;;;6.40;99.90;;;;;;5090465;28;20505;-64
2021/12/08 12:25:30;;;;;;;7.00;2.00;;;6.40;99.90;;;;;;5089911;28;19969;-64
2021/12/08 12:28:17;;;;;;;6.35;1.95;;;6.40;99.90;;;;;;5089989;28;20075;-64
2021/12/08 12:31:08;;;;;;;5.78;1.88;;;6.40;99.90;;;;;;5094674;28;20048;-64
2021/12/08 12:33:44;;;;;;;6.72;2.28;;;6.40;99.90;;;;;;5112519;28;20040;-63
2021/12/08 12:36:31;;;;;;;12.48;2.50;;;6.40;99.90;;;;;;5112517;28;20071;-63
2021/12/08 12:39:12;;;;;;;6.03;2.78;;;6.40;99.90;;;;;;5112741;27;20111;-63
2021/12/08 12:41:39;;;;;;;9.05;2.45;;;6.40;99.90;;;;;;5112705;28;20036;-64
2021/12/08 12:44:20;;;;;;;8.90;2.60;;;6.40;99.90;;;;;;5112498;28;20035;-64
2021/12/08 12:47:13;;;;;;;9.68;2.53;;;6.40;99.90;;;;;;5112313;28;20040;-63
2021/12/08 12:49:44;;;;;;;7.60;2.40;;;6.30;99.90;;;;;;5112342;28;20044;-63
2021/12/08 12:52:12;;;;;;;7.03;2.50;;;6.30;99.90;;;;;;5112457;28;20064;-64
2021/12/08 12:54:41;;;;;;;8.25;2.63;;;6.30;99.90;;;;;;5111075;28;20122;-64
2021/12/08 12:57:07;;;;;;;11.80;2.95;;;6.30;99.90;;;;;;5112211;28;20047;-63
2021/12/08 12:59:39;;;;;;;7.03;2.65;;;6.30;99.90;;;;;;5112501;28;20035;-64
2021/12/08 13:02:13;;;;;;;9.75;2.75;;;6.30;99.90;;;;;;5111134;28;20035;-63
2021/12/08 13:04:58;;;;;;;12.02;3.22;;;6.30;99.90;;;;;;5113001;28;20059;-63
2021/12/08 13:07:29;;;;;;;8.52;2.53;;;6.30;99.90;;;;;;5116320;28;20089;-63
2021/12/08 13:09:57;;;;;;;10.02;2.90;;;6.40;99.90;;;;;;5116348;28;20484;-63
2021/12/08 13:12:35;;;;;;;6.43;2.42;;;6.30;99.90;;;;;;5116389;28;20043;-62
2021/12/08 13:15:11;;;;;;;7.35;2.63;;;6.40;99.90;;;;;;5116213;28;20124;-63
2021/12/08 13:17:38;;;;;;;11.32;2.65;;;6.20;99.90;;;;;;5116239;28;20040;-63
2021/12/08 13:20:09;;;;;;;13.18;3.00;;;6.30;99.90;;;;;;5116198;28;20043;-64
2021/12/08 13:22:52;;;;;;;10.18;2.65;;;6.30;99.90;;;;;;5116142;28;20032;-63
2021/12/08 13:25:54;;;;;;;8.15;2.75;;;6.30;99.90;;;;;;5116187;28;20050;-63
2021/12/08 13:28:26;;;;;;;7.82;2.40;;;6.30;99.90;;;;;;5115855;27;20047;-62
2021/12/08 13:34:23;;;;;;;7.80;2.70;;;6.30;99.90;;;;;;5093876;28;20055;-63
2021/12/08 13:36:48;;;;;;;22.13;3.45;;;6.30;99.90;;;;;;5095388;28;20050;-62
2021/12/08 13:39:30;;;;;;;6.13;2.42;;;6.30;99.90;;;;;;5095512;28;20115;-64
2021/12/08 13:42:02;;;;;;;9.70;3.10;;;6.20;99.90;;;;;;5095326;28;20043;-63
2021/12/08 13:44:36;;;;;;;7.90;2.30;;;6.30;99.90;;;;;;5094634;28;20036;-63
2021/12/08 13:47:06;;;;;;;9.27;2.75;;;6.30;99.90;;;;;;5095106;28;20063;-64
2021/12/08 13:49:45;;;;;;;12.00;2.45;;;6.20;99.90;;;;;;5094155;28;20083;-63
2021/12/08 13:52:53;;;;;;;7.75;2.50;;;6.20;99.90;;;;;;5094794;28;20093;-64
2021/12/08 13:55:24;;;;;;;10.27;2.83;;;6.20;99.90;;;;;;5094779;28;20125;-63
2021/12/08 13:58:01;;;;;;;6.22;2.20;;;6.20;99.90;;;;;;5095061;28;20509;-63
2021/12/08 14:00:39;;;;;;;8.70;2.03;;;6.20;99.90;;;;;;5095073;28;20119;-63
2021/12/08 14:03:15;;;;;;;7.97;2.10;;;6.20;99.90;;;;;;5095025;28;20040;-62
2021/12/08 14:05:59;;;;;;;8.82;2.55;;;6.20;99.90;;;;;;5094883;28;20040;-63
2021/12/08 14:08:27;;;;;;;7.95;2.20;;;6.20;99.90;;;;;;5095095;28;20502;-62
2021/12/08 14:11:12;;;;;;;8.70;2.60;;;6.10;99.90;;;;;;5094693;28;20028;-63
2021/12/08 14:18:06;;;;;;;8.25;2.65;;;6.10;99.90;;;;;;5093614;28;20148;-63
2021/12/08 14:20:35;;;;;;;8.82;2.85;;;6.10;99.90;;;;;;5093638;28;20047;-63
2021/12/08 14:23:02;;;;;;;6.63;2.00;;;6.00;99.90;;;;;;5094584;28;20182;-64
2021/12/08 14:25:32;;;;;;;10.98;2.50;;;6.00;99.90;;;;;;5094645;28;20051;-64
2021/12/08 14:27:59;;;;;;;10.07;2.60;;;5.90;99.90;;;;;;5093348;28;20048;-63
2021/12/08 14:30:26;;;;;;;8.63;2.40;;;5.90;99.90;;;;;;5094275;28;20032;-63